Time;durP1;ratioP1;P1;durP2;ratioP2;P2;SDS_P1;SDS_P2;PMS_P1;PMS_P2;Temp;Humidity;BMP_temperature;BMP_pressure;BME280_temperature;BME280_humidity;BME280_pressure;Samples;Min_cycle;Max_cycle;Signal;HPM_P1;HPM_P2
2023/01/10 00:01:56;;;;;;;;;5.67;3.67;;;;;6.41;100.00;101384.31;5019560;28;46033;-68
2023/01/10 00:04:22;;;;;;;;;6.67;3.33;;;;;6.31;100.00;101372.69;5018952;28;45462;-69
2023/01/10 00:06:47;;;;;;;;;6.67;3.67;;;;;6.38;100.00;101381.03;5019595;28;45682;-71
2023/01/10 00:09:12;;;;;;;;;7.33;3.67;;;;;6.36;100.00;101392.97;5023683;28;45761;-69
2023/01/10 00:14:22;;;;;;;;;5.33;3.00;;;;;6.26;100.00;101364.19;5020263;28;45830;-73
2023/01/10 00:16:47;;;;;;;;;2.67;2.33;;;;;6.32;100.00;101382.59;5021144;28;45745;-69
2023/01/10 00:19:13;;;;;;;;;2.33;2.00;;;;;6.30;100.00;101390.06;5021153;28;45407;-74
2023/01/10 00:21:38;;;;;;;;;0.00;0.00;;;;;6.27;100.00;101393.09;5026698;28;45869;-73
2023/01/10 00:24:16;;;;;;;;;3.00;2.00;;;;;6.28;100.00;101397.53;5020577;28;45677;-71
2023/01/10 00:26:43;;;;;;;;;6.67;2.00;;;;;6.27;100.00;101406.72;5033249;28;45332;-72
2023/01/10 00:29:08;;;;;;;;;2.67;2.67;;;;;6.26;100.00;101414.06;5031679;28;45375;-72
2023/01/10 00:31:34;;;;;;;;;3.00;1.67;;;;;6.25;100.00;101414.22;5031479;28;45474;-72
2023/01/10 00:33:59;;;;;;;;;2.00;2.00;;;;;6.25;100.00;101430.56;5027614;28;45628;-72
2023/01/10 00:36:24;;;;;;;;;3.00;2.00;;;;;6.24;100.00;101434.28;5013920;28;45722;-72
2023/01/10 00:38:50;;;;;;;;;4.00;2.00;;;;;6.22;100.00;101428.16;5013951;28;45879;-69
2023/01/10 00:43:59;;;;;;;;;5.67;2.33;;;;;6.16;100.00;101426.94;5031556;28;45336;-68
2023/01/10 00:46:26;;;;;;;;;3.33;2.00;;;;;6.11;100.00;101424.72;5032371;28;45985;-69
2023/01/10 00:48:51;;;;;;;;;3.67;2.00;;;;;6.12;100.00;101436.44;5032013;28;45486;-69
2023/01/10 00:51:18;;;;;;;;;8.33;2.67;;;;;6.09;100.00;101439.50;5027908;28;46489;-75
2023/01/10 00:53:43;;;;;;;;;8.67;2.67;;;;;6.03;100.00;101443.72;5032528;28;45699;-72
2023/01/10 00:56:08;;;;;;;;;3.33;1.33;;;;;6.06;100.00;101443.38;5025742;28;45988;-74
2023/01/10 00:58:34;;;;;;;;;3.67;2.67;;;;;6.04;100.00;101445.44;5029921;28;45633;-72
2023/01/10 01:00:59;;;;;;;;;4.00;2.33;;;;;5.99;100.00;101453.25;5028786;28;45375;-72
2023/01/10 01:03:25;;;;;;;;;4.00;3.00;;;;;5.98;100.00;101455.09;5027349;28;45696;-71
2023/01/10 01:05:51;;;;;;;;;4.67;2.33;;;;;5.95;100.00;101454.53;5022077;28;45676;-73
2023/01/10 01:08:18;;;;;;;;;3.67;3.67;;;;;5.96;100.00;101464.44;5030988;28;45658;-71
2023/01/10 01:10:43;;;;;;;;;5.00;2.00;;;;;5.94;100.00;101463.72;5020938;28;47714;-71
2023/01/10 01:13:13;;;;;;;;;7.67;2.00;;;;;5.92;100.00;101454.88;5019484;28;45756;-71
2023/01/10 01:15:38;;;;;;;;;5.00;2.00;;;;;5.90;100.00;101456.88;5032994;28;45333;-72
2023/01/10 01:18:05;;;;;;;;;4.00;3.00;;;;;5.89;100.00;101464.19;5030782;28;45367;-72
2023/01/10 01:20:31;;;;;;;;;5.00;2.33;;;;;5.89;100.00;101466.06;5022929;28;46942;-70
2023/01/10 01:22:57;;;;;;;;;4.67;4.67;;;;;5.84;100.00;101459.25;5024614;28;45415;-71
2023/01/10 01:25:22;;;;;;;;;3.00;3.00;;;;;5.84;100.00;101472.00;5021526;28;45321;-71
2023/01/10 01:27:48;;;;;;;;;4.00;1.00;;;;;5.86;100.00;101485.44;5020553;28;45638;-72
2023/01/10 01:30:13;;;;;;;;;3.33;2.33;;;;;5.84;100.00;101483.72;5031221;28;46399;-71
2023/01/10 01:32:39;;;;;;;;;2.33;2.00;;;;;5.82;100.00;101491.22;5025095;28;45678;-70
2023/01/10 01:35:05;;;;;;;;;1.33;1.00;;;;;5.81;100.00;101499.53;5031652;28;45855;-69
2023/01/10 01:37:31;;;;;;;;;4.67;2.00;;;;;5.77;100.00;101499.00;5030428;28;45630;-68
2023/01/10 01:39:56;;;;;;;;;7.00;2.00;;;;;5.77;100.00;101504.44;5021383;28;46115;-69
2023/01/10 01:42:28;;;;;;;;;5.00;3.00;;;;;5.75;100.00;101503.75;5032072;28;45405;-69
2023/01/10 01:45:27;;;;;;;;;11.67;3.00;;;;;5.74;100.00;101504.75;5032506;28;45806;-71
2023/01/10 01:47:57;;;;;;;;;7.33;3.33;;;;;5.70;100.00;101508.78;5014844;28;45432;-72
2023/01/10 01:50:50;;;;;;;;;3.67;1.00;;;;;5.73;100.00;101502.19;5015138;28;46078;-69
2023/01/10 01:53:32;;;;;;;;;9.00;2.67;;;;;5.64;100.00;101464.03;5013789;28;45591;-71
2023/01/10 01:56:02;;;;;;;;;1.67;1.67;;;;;5.76;100.00;101486.41;5025331;28;45713;-69
2023/01/10 01:58:54;;;;;;;;;5.33;2.00;;;;;5.79;100.00;101488.81;5016902;28;45591;-69
2023/01/10 02:01:20;;;;;;;;;4.67;4.00;;;;;5.79;100.00;101494.25;5012447;28;45856;-68
2023/01/10 02:03:52;;;;;;;;;5.33;2.67;;;;;5.84;100.00;101510.13;5022168;28;45790;-70
2023/01/10 02:06:20;;;;;;;;;2.00;2.00;;;;;5.80;100.00;101511.44;5020964;28;45673;-69
2023/01/10 02:08:55;;;;;;;;;3.00;3.00;;;;;5.82;100.00;101529.31;5026111;28;45475;-70
2023/01/10 02:11:21;;;;;;;;;3.67;3.00;;;;;5.84;100.00;101515.56;5025435;28;47751;-71
2023/01/10 02:13:47;;;;;;;;;2.00;2.00;;;;;5.87;100.00;101531.56;5026773;28;45700;-70
2023/01/10 02:16:14;;;;;;;;;2.33;1.00;;;;;5.90;100.00;101527.66;5022266;28;45399;-69
2023/01/10 02:18:41;;;;;;;;;2.00;1.00;;;;;5.91;100.00;101526.66;5025828;28;45752;-69
2023/01/10 02:21:30;;;;;;;;;5.33;2.00;;;;;5.91;100.00;101537.53;5026463;28;46645;-69
2023/01/10 02:24:11;;;;;;;;;3.67;2.00;;;;;5.91;100.00;101541.09;5020159;28;45591;-69
2023/01/10 02:27:19;;;;;;;;;5.33;2.67;;;;;5.91;100.00;101542.97;5021213;28;45596;-69
2023/01/10 02:30:32;;;;;;;;;4.33;2.00;;;;;5.91;100.00;101540.25;5020827;28;45345;-69
2023/01/10 02:33:09;;;;;;;;;3.00;1.33;;;;;5.78;100.00;101525.19;5008813;28;45765;-69
2023/01/10 02:35:40;;;;;;;;;2.00;2.00;;;;;5.91;100.00;101532.09;5009274;28;45287;-68
2023/01/10 02:38:32;;;;;;;;;3.00;1.67;;;;;5.92;100.00;101525.66;5014155;28;45966;-69
2023/01/10 02:41:30;;;;;;;;;5.67;2.00;;;;;5.94;100.00;101532.66;5019928;28;45522;-69
2023/01/10 02:44:34;;;;;;;;;4.00;3.00;;;;;5.92;100.00;101542.81;5032115;28;45926;-71
2023/01/10 02:47:03;;;;;;;;;4.33;2.00;;;;;5.93;100.00;101547.28;5019427;28;45566;-70
2023/01/10 02:49:29;;;;;;;;;7.00;1.67;;;;;5.87;100.00;101549.75;5018785;28;45414;-68
2023/01/10 02:51:55;;;;;;;;;3.00;1.67;;;;;5.91;100.00;101570.22;5021148;28;45748;-68
2023/01/10 02:54:26;;;;;;;;;4.00;4.00;;;;;5.89;100.00;101574.97;5018059;28;45340;-68
2023/01/10 02:57:10;;;;;;;;;2.00;2.00;;;;;5.88;100.00;101570.53;5028081;28;45721;-69
2023/01/10 03:00:14;;;;;;;;;2.00;1.00;;;;;5.88;100.00;101581.41;5027200;28;45306;-73
2023/01/10 03:02:57;;;;;;;;;6.33;3.00;;;;;5.88;100.00;101576.81;5024753;28;45372;-72
2023/01/10 03:05:49;;;;;;;;;2.00;2.00;;;;;5.89;100.00;101558.63;5028291;28;46359;-72
2023/01/10 03:08:36;;;;;;;;;3.00;2.00;;;;;5.87;100.00;101556.06;5018326;28;45738;-70
2023/01/10 03:11:05;;;;;;;;;5.00;2.33;;;;;5.86;100.00;101551.63;5015022;28;45467;-71
2023/01/10 03:13:56;;;;;;;;;6.67;2.00;;;;;5.86;100.00;101556.22;5015018;28;45760;-69
2023/01/10 03:16:28;;;;;;;;;3.00;2.00;;;;;5.83;100.00;101547.34;5016045;28;46996;-68
2023/01/10 03:19:01;;;;;;;;;3.00;1.67;;;;;5.83;100.00;101550.06;5026752;28;45388;-69
2023/01/10 03:21:30;;;;;;;;;2.00;2.00;;;;;5.89;100.00;101562.19;5016604;28;45421;-67
2023/01/10 03:23:59;;;;;;;;;2.00;2.00;;;;;5.87;100.00;101555.19;5034837;28;45448;-69
2023/01/10 03:26:40;;;;;;;;;6.00;3.67;;;;;5.93;100.00;101551.88;5034357;28;46318;-69
2023/01/10 03:29:11;;;;;;;;;3.33;2.33;;;;;5.96;100.00;101563.28;5025366;28;45537;-69
2023/01/10 03:31:46;;;;;;;;;4.67;2.00;;;;;6.02;100.00;101567.28;5020175;28;45792;-71
2023/01/10 03:34:13;;;;;;;;;3.00;1.67;;;;;6.03;100.00;101568.97;5025747;28;45785;-71
2023/01/10 03:36:57;;;;;;;;;1.67;1.67;;;;;6.06;100.00;101570.53;5034046;28;45510;-70
2023/01/10 03:39:25;;;;;;;;;8.67;2.33;;;;;6.09;100.00;101575.66;5034250;28;45470;-69
2023/01/10 03:41:57;;;;;;;;;6.00;2.67;;;;;6.10;100.00;101574.66;5034381;28;45365;-69
2023/01/10 03:44:43;;;;;;;;;5.00;3.00;;;;;6.15;100.00;101570.44;5027809;28;45613;-70
2023/01/10 03:47:41;;;;;;;;;3.00;1.00;;;;;6.21;100.00;101574.38;5028051;28;45503;-72
2023/01/10 03:50:12;;;;;;;;;3.33;1.00;;;;;6.24;100.00;101575.94;5026053;28;45333;-70
2023/01/10 03:52:41;;;;;;;;;2.00;2.00;;;;;6.27;100.00;101579.22;5029430;28;45502;-67
2023/01/10 03:55:10;;;;;;;;;3.00;2.67;;;;;6.33;100.00;101578.56;5032921;28;45413;-69
2023/01/10 03:57:35;;;;;;;;;3.33;1.33;;;;;6.38;100.00;101585.38;5019628;28;45458;-69
2023/01/10 04:00:01;;;;;;;;;3.67;2.67;;;;;6.44;100.00;101592.94;5015754;28;45596;-70
2023/01/10 04:02:29;;;;;;;;;5.33;2.33;;;;;6.45;100.00;101591.91;5016849;28;45462;-71
2023/01/10 04:04:55;;;;;;;;;2.00;2.00;;;;;6.52;100.00;101596.53;5017178;28;45678;-71
2023/01/10 04:07:21;;;;;;;;;1.00;1.00;;;;;6.56;100.00;101591.63;5028407;28;45761;-68
2023/01/10 04:09:46;;;;;;;;;4.33;1.67;;;;;6.60;100.00;101592.16;5032619;28;45448;-70
2023/01/10 04:12:12;;;;;;;;;3.00;1.00;;;;;6.69;100.00;101597.50;5024392;28;45648;-69
2023/01/10 04:14:37;;;;;;;;;4.33;1.67;;;;;6.75;100.00;101592.41;5032607;28;45445;-69
2023/01/10 04:17:03;;;;;;;;;2.00;1.00;;;;;6.82;100.00;101596.19;5024834;28;45703;-69
2023/01/10 04:19:28;;;;;;;;;4.00;3.33;;;;;6.84;100.00;101588.69;5016674;28;45322;-71
2023/01/10 04:21:54;;;;;;;;;3.00;2.00;;;;;6.88;100.00;101590.94;5014532;28;45597;-70
2023/01/10 04:24:20;;;;;;;;;1.00;1.00;;;;;6.79;100.00;101567.38;5014285;28;45756;-71
2023/01/10 04:26:45;;;;;;;;;2.33;2.33;;;;;6.97;100.00;101593.69;5027589;28;45400;-72
2023/01/10 04:29:10;;;;;;;;;2.00;2.00;;;;;6.98;100.00;101593.53;5032930;28;45568;-71
2023/01/10 04:31:36;;;;;;;;;5.33;2.00;;;;;6.92;100.00;101574.25;5033154;28;45410;-72
2023/01/10 04:34:02;;;;;;;;;2.33;2.00;;;;;7.08;100.00;101590.69;5033070;28;45716;-71
2023/01/10 04:36:27;;;;;;;;;4.33;1.00;;;;;7.08;100.00;101596.16;5020449;28;46387;-72
2023/01/10 04:38:52;;;;;;;;;4.33;2.00;;;;;7.13;100.00;101599.22;5028422;28;45453;-71
2023/01/10 04:41:18;;;;;;;;;6.00;2.00;;;;;7.17;100.00;101599.72;5027824;28;46459;-71
2023/01/10 04:43:43;;;;;;;;;2.67;2.00;;;;;7.23;100.00;101593.59;5017298;28;45666;-72
2023/01/10 04:46:09;;;;;;;;;4.00;3.00;;;;;7.24;100.00;101598.06;5016380;28;46543;-70
2023/01/10 04:48:36;;;;;;;;;2.00;2.00;;;;;7.30;100.00;101602.00;5020684;28;45694;-71
2023/01/10 04:51:02;;;;;;;;;2.67;2.00;;;;;7.31;100.00;101598.25;5017456;28;45390;-69
2023/01/10 04:53:27;;;;;;;;;3.67;2.00;;;;;7.31;100.00;101598.25;5023310;28;45536;-70
2023/01/10 04:55:52;;;;;;;;;3.67;2.67;;;;;7.26;100.00;101593.31;5019358;28;45484;-69
2023/01/10 04:58:18;;;;;;;;;5.00;1.00;;;;;7.37;100.00;101612.06;5015617;28;46553;-70
2023/01/10 05:00:44;;;;;;;;;3.00;1.00;;;;;7.40;100.00;101606.28;5020904;28;45338;-71
2023/01/10 05:03:09;;;;;;;;;3.00;2.00;;;;;7.44;100.00;101601.38;5032419;28;45920;-74
2023/01/10 05:05:34;;;;;;;;;3.33;1.00;;;;;7.51;100.00;101596.91;5017703;28;47348;-70
2023/01/10 05:08:00;;;;;;;;;1.00;1.00;;;;;7.54;100.00;101614.84;5028188;28;45978;-69
2023/01/10 05:10:25;;;;;;;;;4.00;2.00;;;;;7.54;100.00;101595.75;5026334;28;45418;-71
2023/01/10 05:12:51;;;;;;;;;33.00;21.33;;;;;7.56;100.00;101602.75;5023589;28;46358;-72
2023/01/10 05:15:17;;;;;;;;;35.33;30.00;;;;;7.67;100.00;101600.72;5028410;28;46400;-71
2023/01/10 05:17:42;;;;;;;;;19.00;16.33;;;;;7.73;100.00;101594.59;5013281;28;45729;-70
2023/01/10 05:20:09;;;;;;;;;41.25;32.00;;;;;7.77;100.00;101591.34;5015124;28;45376;-69
2023/01/10 05:22:34;;;;;;;;;21.67;14.00;;;;;7.81;100.00;101583.66;5030811;28;45788;-71
2023/01/10 05:25:00;;;;;;;;;23.00;15.33;;;;;7.88;100.00;101586.56;5029293;28;45701;-71
2023/01/10 05:27:25;;;;;;;;;16.67;11.67;;;;;7.94;100.00;101592.19;5019277;28;45378;-72
2023/01/10 05:29:51;;;;;;;;;11.00;9.00;;;;;7.99;100.00;101594.41;5019542;28;45401;-72
2023/01/10 05:32:16;;;;;;;;;4.00;2.67;;;;;8.01;100.00;101595.09;5025240;28;45376;-70
2023/01/10 05:34:42;;;;;;;;;2.00;2.00;;;;;8.00;100.00;101592.53;5023964;28;46185;-70
2023/01/10 05:37:07;;;;;;;;;6.33;3.00;;;;;8.00;100.00;101593.38;5030804;28;45434;-70
2023/01/10 05:39:33;;;;;;;;;13.00;3.00;;;;;8.00;100.00;101595.28;5023711;28;46034;-70
2023/01/10 05:41:59;;;;;;;;;11.00;5.67;;;;;7.98;100.00;101594.56;5014526;28;45665;-72
2023/01/10 05:44:24;;;;;;;;;2.00;2.00;;;;;7.98;100.00;101597.31;5036731;28;47016;-73
2023/01/10 05:46:50;;;;;;;;;2.67;2.00;;;;;7.95;100.00;101593.91;5028395;28;45427;-73
2023/01/10 05:49:15;;;;;;;;;6.33;2.00;;;;;7.97;100.00;101590.16;5016347;28;45781;-69
2023/01/10 05:51:41;;;;;;;;;6.67;3.00;;;;;7.98;100.00;101589.97;5023052;28;45476;-69
2023/01/10 05:54:07;;;;;;;;;6.00;2.33;;;;;7.97;100.00;101582.81;5022198;28;46065;-71
2023/01/10 05:56:32;;;;;;;;;5.67;3.33;;;;;7.98;100.00;101589.09;5021467;28;45522;-70
2023/01/10 05:58:58;;;;;;;;;3.00;3.00;;;;;7.92;100.00;101571.56;5014362;28;45679;-71
2023/01/10 06:01:24;;;;;;;;;5.33;3.00;;;;;7.92;100.00;101577.00;5024267;28;45811;-71
2023/01/10 06:03:49;;;;;;;;;5.00;1.67;;;;;7.88;100.00;101573.75;5023845;28;45461;-72
2023/01/10 06:06:14;;;;;;;;;4.00;2.67;;;;;7.90;100.00;101584.50;5023208;28;45519;-72
2023/01/10 06:08:40;;;;;;;;;2.00;1.00;;;;;7.90;100.00;101584.50;5010990;28;45434;-73
2023/01/10 06:11:06;;;;;;;;;5.00;2.00;;;;;7.94;100.00;101585.88;5027397;28;47497;-73
2023/01/10 06:13:32;;;;;;;;;5.00;3.00;;;;;7.90;100.00;101581.78;5020957;28;46883;-70
2023/01/10 06:15:58;;;;;;;;;3.00;3.00;;;;;7.87;100.00;101577.50;5013787;28;46034;-72
2023/01/10 06:18:23;;;;;;;;;4.00;2.00;;;;;7.93;100.00;101586.91;5023107;28;45448;-75
2023/01/10 06:20:49;;;;;;;;;6.00;3.00;;;;;7.80;100.00;101556.50;5015980;28;45820;-72
2023/01/10 06:23:14;;;;;;;;;4.00;2.00;;;;;7.86;100.00;101573.09;5021472;28;45817;-72
2023/01/10 06:25:40;;;;;;;;;2.67;2.67;;;;;7.68;100.00;101547.81;5022838;28;45607;-74
2023/01/10 06:28:11;;;;;;;;;1.67;1.67;;;;;7.68;100.00;101566.91;5027279;28;45710;-72
2023/01/10 06:30:37;;;;;;;;;4.67;2.00;;;;;7.71;100.00;101581.09;5028897;28;45926;-73
2023/01/10 06:33:12;;;;;;;;;2.00;1.67;;;;;7.70;100.00;101578.53;5024669;28;45534;-73
2023/01/10 06:35:37;;;;;;;;;3.67;1.33;;;;;7.70;100.00;101584.00;5018847;28;45641;-74
2023/01/10 06:38:03;;;;;;;;;4.67;2.00;;;;;7.67;100.00;101592.53;5016648;28;45378;-73
2023/01/10 06:40:29;;;;;;;;;6.33;2.00;;;;;7.62;100.00;101583.97;5002422;28;45850;-71
2023/01/10 06:42:55;;;;;;;;;2.00;1.00;;;;;7.56;100.00;101583.63;5019728;28;47535;-71
2023/01/10 06:45:20;;;;;;;;;6.67;4.00;;;;;7.53;100.00;101580.38;5020386;28;45429;-76
2023/01/10 06:47:46;;;;;;;;;4.00;3.00;;;;;7.47;100.00;101583.78;5021195;28;45558;-75
2023/01/10 06:50:13;;;;;;;;;5.33;2.33;;;;;7.42;100.00;101585.16;5014691;28;46436;-74
2023/01/10 06:52:39;;;;;;;;;2.33;2.00;;;;;7.30;100.00;101567.38;5023980;28;46514;-71
2023/01/10 06:55:05;;;;;;;;;4.00;2.67;;;;;7.42;100.00;101587.88;5025604;28;45787;-72
2023/01/10 06:57:34;;;;;;;;;3.33;2.00;;;;;7.42;100.00;101592.47;5014105;28;45802;-73
2023/01/10 07:00:01;;;;;;;;;8.00;2.67;;;;;7.46;100.00;101599.31;5015304;28;45730;-74
2023/01/10 07:02:27;;;;;;;;;3.00;3.00;;;;;7.35;100.00;101569.59;5015658;28;45643;-69
2023/01/10 07:04:52;;;;;;;;;3.33;2.00;;;;;7.57;100.00;101596.28;5020500;28;45402;-71
2023/01/10 07:07:17;;;;;;;;;2.33;2.00;;;;;7.56;100.00;101601.88;5023333;28;45329;-74
2023/01/10 07:09:43;;;;;;;;;4.00;2.00;;;;;7.74;100.00;101601.75;5021980;28;45821;-75
2023/01/10 07:12:08;;;;;;;;;5.33;2.00;;;;;7.84;100.00;101602.41;5019134;28;45393;-70
2023/01/10 07:14:34;;;;;;;;;4.00;3.00;;;;;7.93;100.00;101600.56;5028403;28;45783;-74
2023/01/10 07:16:59;;;;;;;;;8.67;3.00;;;;;8.03;100.00;101594.94;5016937;28;45892;-72
2023/01/10 07:19:24;;;;;;;;;2.00;2.00;;;;;8.12;100.00;101588.44;5022560;28;45406;-72
2023/01/10 07:21:50;;;;;;;;;6.33;4.00;;;;;8.12;100.00;101581.06;5023743;28;45543;-73
2023/01/10 07:24:16;;;;;;;;;2.00;2.00;;;;;8.05;100.00;101582.78;5025673;28;45834;-72
2023/01/10 07:26:41;;;;;;;;;3.00;3.00;;;;;8.02;100.00;101582.28;5018723;28;45650;-71
2023/01/10 07:29:06;;;;;;;;;3.00;2.33;;;;;7.99;100.00;101583.47;5012799;28;45461;-71
2023/01/10 07:31:32;;;;;;;;;7.00;3.67;;;;;7.97;100.00;101581.97;5017049;28;45590;-74
2023/01/10 07:33:57;;;;;;;;;8.00;3.00;;;;;7.94;100.00;101575.78;5036656;28;45842;-69
2023/01/10 07:36:23;;;;;;;;;4.33;1.33;;;;;7.92;100.00;101577.00;5026018;28;45552;-71
2023/01/10 07:38:48;;;;;;;;;2.00;2.00;;;;;7.84;100.00;101561.47;5026115;28;45500;-69
2023/01/10 07:41:14;;;;;;;;;5.00;3.00;;;;;7.94;100.00;101578.53;5029666;28;46162;-72
2023/01/10 07:43:39;;;;;;;;;3.00;2.33;;;;;7.95;100.00;101571.22;5017994;28;46081;-73
2023/01/10 07:46:10;;;;;;;;;5.00;3.00;;;;;7.93;100.00;101579.56;5022288;28;45772;-75
2023/01/10 07:48:37;;;;;;;;;7.00;4.67;;;;;7.93;100.00;101581.44;5020697;28;45654;-70
2023/01/10 07:51:04;;;;;;;;;3.33;2.00;;;;;7.87;100.00;101574.78;5042437;28;45315;-70
2023/01/10 07:53:30;;;;;;;;;3.00;3.00;;;;;7.90;100.00;101577.19;5033806;28;45807;-71
2023/01/10 07:56:00;;;;;;;;;5.67;3.00;;;;;7.91;100.00;101578.88;5031951;28;45706;-70
2023/01/10 07:58:26;;;;;;;;;5.67;5.00;;;;;7.94;100.00;101572.22;5033696;28;45411;-67
2023/01/10 08:00:52;;;;;;;;;4.33;2.67;;;;;8.02;100.00;101583.13;5032035;28;45346;-70
2023/01/10 08:03:17;;;;;;;;;3.67;3.00;;;;;8.02;100.00;101576.81;5025963;28;45345;-69
2023/01/10 08:05:43;;;;;;;;;3.33;3.00;;;;;8.04;100.00;101575.63;5023891;28;45540;-70
2023/01/10 08:08:11;;;;;;;;;4.33;3.33;;;;;8.08;100.00;101577.00;5028901;28;45666;-69
2023/01/10 08:10:37;;;;;;;;;3.00;2.33;;;;;8.11;100.00;101578.53;5027035;28;45455;-70
2023/01/10 08:13:04;;;;;;;;;8.67;2.67;;;;;8.11;100.00;101568.47;5027435;28;45573;-73
2023/01/10 08:15:30;;;;;;;;;3.67;3.00;;;;;8.13;100.00;101571.88;5029421;28;45653;-73
2023/01/10 08:18:01;;;;;;;;;6.00;3.00;;;;;8.22;100.00;101574.56;5030486;28;45664;-71
2023/01/10 08:20:28;;;;;;;;;4.67;3.00;;;;;8.26;100.00;101579.53;5023657;28;46315;-72
2023/01/10 08:22:56;;;;;;;;;3.00;3.00;;;;;8.33;100.00;101578.84;5026046;28;45649;-70
2023/01/10 08:25:25;;;;;;;;;4.67;4.00;;;;;8.39;100.00;101583.63;5029948;28;45912;-71
2023/01/10 08:27:50;;;;;;;;;6.00;4.00;;;;;8.43;100.00;101583.09;5025155;28;45484;-72
2023/01/10 08:30:16;;;;;;;;;7.00;3.33;;;;;8.50;100.00;101568.75;5025488;28;46925;-73
2023/01/10 08:32:41;;;;;;;;;5.67;2.33;;;;;8.53;100.00;101560.19;5026045;28;45788;-72
2023/01/10 08:35:08;;;;;;;;;4.00;3.33;;;;;8.56;100.00;101563.47;5029235;28;45409;-73
2023/01/10 08:37:34;;;;;;;;;3.67;2.00;;;;;8.41;100.00;101532.34;5024980;28;45437;-72
2023/01/10 08:39:59;;;;;;;;;3.00;3.00;;;;;8.55;100.00;101542.59;5027877;28;45524;-72
2023/01/10 08:42:25;;;;;;;;;3.33;3.00;;;;;8.63;100.00;101563.59;5030397;28;45780;-70
2023/01/10 08:44:50;;;;;;;;;5.67;4.00;;;;;8.63;100.00;101558.13;5021833;28;45440;-71
2023/01/10 08:47:15;;;;;;;;;5.33;3.00;;;;;8.66;100.00;101569.56;5032277;28;45396;-70
2023/01/10 08:49:41;;;;;;;;;7.00;3.00;;;;;8.69;100.00;101571.09;5023166;28;46137;-73
2023/01/10 08:52:06;;;;;;;;;7.67;3.00;;;;;8.72;100.00;101567.16;5014744;28;45682;-74
2023/01/10 08:54:32;;;;;;;;;4.67;3.67;;;;;8.74;100.00;101576.03;5028164;28;45649;-72
2023/01/10 08:56:58;;;;;;;;;2.67;2.67;;;;;8.73;100.00;101579.81;5023926;28;45446;-73
2023/01/10 08:59:23;;;;;;;;;5.67;1.33;;;;;8.73;100.00;101582.53;5033473;28;45747;-73
2023/01/10 09:01:49;;;;;;;;;3.67;2.33;;;;;8.75;100.00;101584.06;5049376;28;45783;-74
2023/01/10 09:04:14;;;;;;;;;5.00;3.00;;;;;8.78;100.00;101583.69;5029036;28;47277;-73
2023/01/10 09:06:40;;;;;;;;;3.67;3.00;;;;;8.79;100.00;101577.22;5029888;28;45713;-74
2023/01/10 09:09:05;;;;;;;;;5.00;3.00;;;;;8.79;100.00;101570.91;5031539;28;45974;-74
2023/01/10 09:11:31;;;;;;;;;4.33;3.67;;;;;8.81;100.00;101574.31;5031194;28;45399;-75
2023/01/10 09:13:56;;;;;;;;;8.00;3.33;;;;;8.83;100.00;101578.56;5038970;28;45417;-69
2023/01/10 09:16:22;;;;;;;;;5.00;4.00;;;;;8.86;100.00;101571.03;5016242;28;45750;-70
2023/01/10 09:18:48;;;;;;;;;2.67;2.67;;;;;8.89;100.00;101578.88;5018151;28;47132;-70
2023/01/10 09:21:13;;;;;;;;;10.33;3.00;;;;;8.83;100.00;101558.56;5022108;28;45386;-70
2023/01/10 09:23:39;;;;;;;;;4.33;4.00;;;;;8.94;100.00;101571.00;5022837;28;45377;-69
2023/01/10 09:26:04;;;;;;;;;3.33;1.67;;;;;8.97;100.00;101566.03;5025103;28;45629;-74
2023/01/10 09:28:30;;;;;;;;;4.33;2.00;;;;;8.95;100.00;101564.50;5027693;28;45462;-73
2023/01/10 09:30:56;;;;;;;;;6.67;3.67;;;;;8.93;100.00;101550.16;5026291;28;45377;-74
2023/01/10 09:33:21;;;;;;;;;6.00;5.00;;;;;8.96;100.00;101553.38;5032800;28;45864;-73
2023/01/10 09:35:47;;;;;;;;;4.00;4.00;;;;;8.89;100.00;101549.66;5034169;28;45960;-73
2023/01/10 09:38:15;;;;;;;;;5.33;3.00;;;;;8.84;100.00;101549.31;5031744;28;46480;-73
2023/01/10 09:40:59;;;;;;;;;0.33;0.00;;;;;8.79;100.00;101557.22;5026026;28;45387;-71
2023/01/10 09:43:40;;;;;;;;;3.67;3.00;;;;;8.73;100.00;101547.00;5021044;28;45628;-71
2023/01/10 09:46:14;;;;;;;;;6.67;3.67;;;;;8.71;100.00;101529.88;5026898;28;45402;-72
2023/01/10 09:48:56;;;;;;;;;6.00;3.00;;;;;8.61;100.00;101528.22;5016488;28;46960;-72
2023/01/10 09:51:47;;;;;;;;;5.33;4.00;;;;;8.65;100.00;101543.25;5016633;28;45460;-72
2023/01/10 09:54:23;;;;;;;;;3.33;3.33;;;;;8.64;100.00;101543.44;5021895;28;45411;-72
2023/01/10 09:56:52;;;;;;;;;4.00;3.00;;;;;8.62;100.00;101532.66;5025175;28;45739;-72
2023/01/10 09:59:25;;;;;;;;;7.67;3.00;;;;;8.65;100.00;101540.53;5017712;28;45907;-72
2023/01/10 10:01:59;;;;;;;;;8.33;4.00;;;;;8.68;100.00;101541.19;5020074;28;45462;-73
2023/01/10 10:04:33;;;;;;;;;4.00;4.00;;;;;8.66;100.00;101544.94;5025313;28;45456;-74
2023/01/10 10:06:58;;;;;;;;;3.67;3.67;;;;;8.70;100.00;101556.41;5028804;28;45348;-74
2023/01/10 10:09:34;;;;;;;;;7.00;5.33;;;;;8.72;100.00;101548.84;5022286;28;45623;-72
2023/01/10 10:12:22;;;;;;;;;3.33;3.00;;;;;8.75;100.00;101555.88;5027782;28;45806;-74
2023/01/10 10:15:16;;;;;;;;;5.00;3.00;;;;;8.77;100.00;101553.78;5013079;28;45664;-73
2023/01/10 10:18:15;;;;;;;;;5.67;3.33;;;;;8.76;100.00;101552.94;5015399;28;45330;-71
2023/01/10 10:20:56;;;;;;;;;6.67;4.33;;;;;8.77;100.00;101553.78;5011588;28;45780;-73
2023/01/10 10:23:42;;;;;;;;;5.00;4.00;;;;;8.70;100.00;101530.91;5016574;28;45464;-72
2023/01/10 10:26:18;;;;;;;;;5.00;4.00;;;;;8.79;100.00;101533.44;5019605;28;45527;-74
2023/01/10 10:29:18;;;;;;;;;4.00;2.67;;;;;8.76;100.00;101527.50;5016184;28;45783;-72
2023/01/10 10:31:53;;;;;;;;;7.00;5.33;;;;;8.77;100.00;101515.50;5011580;28;45754;-73
2023/01/10 10:34:41;;;;;;;;;6.67;4.67;;;;;8.75;100.00;101514.84;5025810;28;45666;-73
2023/01/10 10:37:18;;;;;;;;;2.33;2.33;;;;;8.72;100.00;101504.25;5029435;28;45516;-72
2023/01/10 10:39:59;;;;;;;;;6.67;4.67;;;;;8.74;100.00;101503.06;5026899;28;46117;-69
2023/01/10 10:42:32;;;;;;;;;8.50;5.00;;;;;8.74;100.00;101483.03;5024541;28;45664;-69
2023/01/10 10:45:03;;;;;;;;;9.67;5.67;;;;;8.73;100.00;101478.63;5017473;28;45741;-73
2023/01/10 10:47:32;;;;;;;;;5.33;5.33;;;;;8.71;100.00;101467.00;5013649;28;45433;-73
2023/01/10 10:50:19;;;;;;;;;7.00;6.00;;;;;8.63;100.00;101463.25;5021306;28;45869;-73
2023/01/10 10:52:45;;;;;;;;;4.67;4.67;;;;;8.76;100.00;101459.97;5029493;28;48140;-74
2023/01/10 10:55:14;;;;;;;;;6.00;5.00;;;;;8.70;100.00;101462.53;5029061;28;45879;-74
2023/01/10 10:57:41;;;;;;;;;5.67;4.33;;;;;8.72;100.00;101449.56;5030647;28;45380;-70
2023/01/10 11:00:13;;;;;;;;;6.67;5.00;;;;;8.62;100.00;101445.19;5017736;28;45521;-73
2023/01/10 11:02:42;;;;;;;;;8.00;6.67;;;;;8.77;100.00;101453.47;5021682;28;45450;-71
2023/01/10 11:05:19;;;;;;;;;5.67;4.00;;;;;8.75;100.00;101457.41;5023623;28;45457;-73
2023/01/10 11:07:44;;;;;;;;;6.67;5.00;;;;;8.80;100.00;101453.13;5023090;28;45361;-76
2023/01/10 11:10:33;;;;;;;;;3.67;3.67;;;;;8.81;100.00;101449.31;5032608;28;45974;-82
2023/01/10 11:13:04;;;;;;;;;7.33;6.00;;;;;8.84;100.00;101437.19;5026346;28;45381;-74
2023/01/10 11:15:45;;;;;;;;;12.00;5.33;;;;;8.81;100.00;101419.25;5032594;28;46500;-76
2023/01/10 11:18:20;;;;;;;;;9.67;5.33;;;;;8.86;100.00;101431.53;5027702;28;45639;-73
2023/01/10 11:20:48;;;;;;;;;10.33;6.00;;;;;8.89;100.00;101422.97;5031972;28;45661;-73
2023/01/10 11:23:30;;;;;;;;;6.67;6.00;;;;;8.90;100.00;101422.78;5035433;28;45282;-73
2023/01/10 11:25:56;;;;;;;;;6.67;4.33;;;;;8.87;100.00;101401.25;5016802;28;46016;-74
2023/01/10 11:28:28;;;;;;;;;9.67;6.00;;;;;9.00;100.00;101401.50;5021421;28;45692;-72
2023/01/10 11:30:54;;;;;;;;;6.67;6.67;;;;;8.98;100.00;101398.13;5032054;28;45758;-70
2023/01/10 11:33:28;;;;;;;;;5.67;5.00;;;;;9.02;100.00;101393.97;5031458;28;46992;-71
2023/01/10 11:36:00;;;;;;;;;2.00;2.00;;;;;9.09;100.00;101387.78;5015728;28;45429;-77
2023/01/10 11:38:30;;;;;;;;;7.33;3.00;;;;;9.11;100.00;101382.97;5019737;28;45915;-76
2023/01/10 11:41:22;;;;;;;;;3.67;3.00;;;;;9.19;100.00;101369.19;5024516;28;45853;-77
2023/01/10 11:43:47;;;;;;;;;5.00;3.00;;;;;9.25;100.00;101371.22;5016265;28;46358;-74